Time;durP1;ratioP1;P1;durP2;ratioP2;P2;SDS_P1;SDS_P2;PMS_P1;PMS_P2;Temp;Humidity;BMP_temperature;BMP_pressure;BME280_temperature;BME280_humidity;BME280_pressure;Samples;Min_cycle;Max_cycle;Signal;HPM_P1;HPM_P2
2023/09/10 00:00:27;;;;;;;;;;;;;;;;;;5075883;28;19936;-52
2023/09/10 00:02:53;;;;;;;;;;;;;;;;;;5089799;28;19917;-52
2023/09/10 00:05:19;;;;;;;;;;;;;;;;;;5080139;28;19912;-54
2023/09/10 00:07:44;;;;;;;;;;;;;;;;;;5072406;28;20008;-54
2023/09/10 00:10:10;;;;;;;;;;;;;;;;;;5077512;28;19924;-57
2023/09/10 00:12:35;;;;;;;;;;;;;;;;;;5085693;28;19940;-54
2023/09/10 00:15:01;;;;;;;;;;;;;;;;;;5077676;28;19913;-55
2023/09/10 00:17:26;;;;;;;;;;;;;;;;;;5077664;28;19916;-51
2023/09/10 00:19:52;;;;;;;;;;;;;;;;;;5059560;28;19913;-53
2023/09/10 00:22:17;;;;;;;;;;;;;;;;;;5082282;28;19913;-52
2023/09/10 00:24:43;;;;;;;;;;;;;;;;;;5077837;28;19927;-51
2023/09/10 00:27:08;;;;;;;;;;;;;;;;;;5084435;28;19924;-53
2023/09/10 00:29:34;;;;;;;;;;;;;;;;;;5059520;28;19927;-55
2023/09/10 00:31:59;;;;;;;;;;;;;;;;;;5094506;28;19909;-51
2023/09/10 00:34:25;;;;;;;;;;;;;;;;;;5076688;28;19913;-53
2023/09/10 00:36:52;;;;;;;;;;;;;;;;;;5080736;28;20000;-55
2023/09/10 00:39:19;;;;;;;;;;;;;;;;;;5077203;28;19913;-55
2023/09/10 00:41:46;;;;;;;;;;;;;;;;;;5084254;28;19908;-53
2023/09/10 00:44:11;;;;;;;;;;;;;;;;;;5082431;28;19985;-55
2023/09/10 00:46:37;;;;;;;;;;;;;;;;;;5060272;28;19913;-50
2023/09/10 00:49:02;;;;;;;;;;;;;;;;;;5059321;28;19923;-56
2023/09/10 00:51:27;;;;;;;;;;;;;;;;;;5059394;28;20023;-56
2023/09/10 00:53:53;;;;;;;;;;;;;;;;;;5059769;28;19916;-53
2023/09/10 00:56:18;;;;;;;;;;;;;;;;;;5094129;28;19923;-51
2023/09/10 00:58:44;;;;;;;;;;;;;;;;;;5081394;28;19916;-55
2023/09/10 01:01:09;;;;;;;;;;;;;;;;;;5076639;28;19928;-58
2023/09/10 01:03:35;;;;;;;;;;;;;;;;;;5082697;28;19912;-51
2023/09/10 01:06:00;;;;;;;;;;;;;;;;;;5060729;28;19931;-52
2023/09/10 01:08:26;;;;;;;;;;;;;;;;;;5064964;28;19935;-52
2023/09/10 01:10:51;;;;;;;;;;;;;;;;;;5092573;28;19917;-55
2023/09/10 01:13:17;;;;;;;;;;;;;;;;;;5095794;28;19916;-57
2023/09/10 01:15:42;;;;;;;;;;;;;;;;;;5077077;28;19912;-56
2023/09/10 01:18:08;;;;;;;;;;;;;;;;;;5123493;27;19926;-54
2023/09/10 01:20:33;;;;;;;;;;;;;;;;;;5095950;28;19928;-56
2023/09/10 01:22:59;;;;;;;;;;;;;;;;;;5097249;28;19920;-56
2023/09/10 01:25:24;;;;;;;;;;;;;;;;;;5096253;28;19920;-56
2023/09/10 01:27:50;;;;;;;;;;;;;;;;;;5097079;28;19912;-55
2023/09/10 01:30:15;;;;;;;;;;;;;;;;;;5096693;28;19923;-56
2023/09/10 01:32:40;;;;;;;;;;;;;;;;;;5107185;28;19947;-56
2023/09/10 01:35:06;;;;;;;;;;;;;;;;;;5096361;28;19940;-53
2023/09/10 01:37:31;;;;;;;;;;;;;;;;;;5096257;28;19913;-53
2023/09/10 01:39:57;;;;;;;;;;;;;;;;;;5092128;28;19919;-53
2023/09/10 01:42:22;;;;;;;;;;;;;;;;;;5096819;28;19912;-56
2023/09/10 01:44:48;;;;;;;;;;;;;;;;;;5096672;28;19923;-55
2023/09/10 01:47:13;;;;;;;;;;;;;;;;;;5096572;28;19956;-56
2023/09/10 01:49:39;;;;;;;;;;;;;;;;;;5096651;28;19916;-57
2023/09/10 01:52:04;;;;;;;;;;;;;;;;;;5099303;28;19918;-57
2023/09/10 01:54:30;;;;;;;;;;;;;;;;;;5096467;28;19912;-55
2023/09/10 01:56:55;;;;;;;;;;;;;;;;;;5108975;28;19916;-52
2023/09/10 01:59:21;;;;;;;;;;;;;;;;;;5096183;28;19951;-51
2023/09/10 02:01:46;;;;;;;;;;;;;;;;;;5095765;28;19913;-56
2023/09/10 02:04:11;;;;;;;;;;;;;;;;;;5095911;28;19923;-57
2023/09/10 02:06:37;;;;;;;;;;;;;;;;;;5097899;28;19924;-57
2023/09/10 02:09:03;;;;;;;;;;;;;;;;;;5096594;28;19916;-56
2023/09/10 02:11:28;;;;;;;;;;;;;;;;;;5095488;28;19951;-57
2023/09/10 02:13:54;;;;;;;;;;;;;;;;;;5103319;28;19916;-56
2023/09/10 02:16:19;;;;;;;;;;;;;;;;;;5090444;28;19979;-53
2023/09/10 02:18:44;;;;;;;;;;;;;;;;;;5076911;28;19938;-54
2023/09/10 02:21:10;;;;;;;;;;;;;;;;;;5095418;28;19912;-56
2023/09/10 02:23:35;;;;;;;;;;;;;;;;;;5103779;28;19938;-58
2023/09/10 02:26:01;;;;;;;;;;;;;;;;;;5106231;28;19912;-56
2023/09/10 02:28:26;;;;;;;;;;;;;;;;;;5106866;28;19919;-56
2023/09/10 02:30:52;;;;;;;;;;;;;;;;;;5095296;28;19917;-56
2023/09/10 02:33:17;;;;;;;;;;;;;;;;;;5100578;28;19913;-57
2023/09/10 02:35:42;;;;;;;;;;;;;;;;;;5096237;28;19913;-58
2023/09/10 02:38:07;;;;;;;;;;;;;;;;;;5101459;28;19920;-57
2023/09/10 02:40:33;;;;;;;;;;;;;;;;;;5087624;28;19939;-57
2023/09/10 02:42:58;;;;;;;;;;;;;;;;;;5097222;28;19913;-57
2023/09/10 02:45:23;;;;;;;;;;;;;;;;;;5089265;28;19924;-55
2023/09/10 02:47:49;;;;;;;;;;;;;;;;;;5097794;28;19938;-54
2023/09/10 02:50:14;;;;;;;;;;;;;;;;;;5089342;28;19917;-56
2023/09/10 02:52:40;;;;;;;;;;;;;;;;;;5095994;28;19940;-57
2023/09/10 02:55:06;;;;;;;;;;;;;;;;;;5104326;28;19920;-56
2023/09/10 02:57:32;;;;;;;;;;;;;;;;;;5094847;28;19917;-54
2023/09/10 02:59:57;;;;;;;;;;;;;;;;;;5094997;28;19913;-57
2023/09/10 03:02:23;;;;;;;;;;;;;;;;;;5095352;28;19916;-52
2023/09/10 03:04:48;;;;;;;;;;;;;;;;;;5103851;28;20018;-56
2023/09/10 03:07:13;;;;;;;;;;;;;;;;;;5079862;28;19943;-55
2023/09/10 03:09:38;;;;;;;;;;;;;;;;;;5095546;28;19938;-56
2023/09/10 03:12:04;;;;;;;;;;;;;;;;;;5094659;28;20004;-53
2023/09/10 03:14:29;;;;;;;;;;;;;;;;;;5100032;28;19932;-55
2023/09/10 03:16:55;;;;;;;;;;;;;;;;;;5090026;28;20387;-51
2023/09/10 03:19:20;;;;;;;;;;;;;;;;;;5094238;28;19928;-51
2023/09/10 03:21:47;;;;;;;;;;;;;;;;;;5095147;28;19913;-49
2023/09/10 03:24:12;;;;;;;;;;;;;;;;;;5096543;28;19913;-53
2023/09/10 03:26:38;;;;;;;;;;;;;;;;;;5094430;28;19984;-52
2023/09/10 03:29:03;;;;;;;;;;;;;;;;;;5097474;28;19976;-53
2023/09/10 03:31:28;;;;;;;;;;;;;;;;;;5090554;28;19924;-52
2023/09/10 03:33:53;;;;;;;;;;;;;;;;;;5109728;28;19916;-54
2023/09/10 03:36:19;;;;;;;;;;;;;;;;;;5097382;28;19912;-51
2023/09/10 03:38:44;;;;;;;;;;;;;;;;;;5094525;28;19912;-55
2023/09/10 03:41:10;;;;;;;;;;;;;;;;;;5094096;28;19917;-54
2023/09/10 03:43:36;;;;;;;;;;;;;;;;;;5099860;28;19915;-54
2023/09/10 03:46:01;;;;;;;;;;;;;;;;;;5097905;28;19932;-58
2023/09/10 03:48:27;;;;;;;;;;;;;;;;;;5094252;28;19954;-55
2023/09/10 03:50:53;;;;;;;;;;;;;;;;;;5094115;28;19935;-53
2023/09/10 03:53:18;;;;;;;;;;;;;;;;;;5094074;28;19940;-53
2023/09/10 03:55:44;;;;;;;;;;;;;;;;;;5094033;28;19917;-52
2023/09/10 03:58:10;;;;;;;;;;;;;;;;;;5097269;28;19954;-55
2023/09/10 04:00:36;;;;;;;;;;;;;;;;;;5097261;28;19919;-55
2023/09/10 04:03:02;;;;;;;;;;;;;;;;;;5094975;28;19917;-55
2023/09/10 04:05:27;;;;;;;;;;;;;;;;;;5096999;28;19904;-57
2023/09/10 04:07:53;;;;;;;;;;;;;;;;;;5095035;28;20010;-56
2023/09/10 04:10:20;;;;;;;;;;;;;;;;;;5097246;28;19916;-55
2023/09/10 04:12:46;;;;;;;;;;;;;;;;;;5095004;28;20058;-54
2023/09/10 04:15:11;;;;;;;;;;;;;;;;;;5106399;28;19916;-58
2023/09/10 04:17:37;;;;;;;;;;;;;;;;;;5094102;28;19917;-53
2023/09/10 04:20:07;;;;;;;;;;;;;;;;;;5093221;28;19916;-51
2023/09/10 04:22:32;;;;;;;;;;;;;;;;;;5085777;28;19913;-54
2023/09/10 04:24:57;;;;;;;;;;;;;;;;;;5086366;28;19919;-55
2023/09/10 04:27:23;;;;;;;;;;;;;;;;;;5094707;28;19912;-54
2023/09/10 04:29:48;;;;;;;;;;;;;;;;;;5093458;28;19916;-55
2023/09/10 04:32:14;;;;;;;;;;;;;;;;;;5092997;28;19912;-55
2023/09/10 04:34:39;;;;;;;;;;;;;;;;;;5098978;28;19924;-54
2023/09/10 04:37:04;;;;;;;;;;;;;;;;;;5094570;28;19935;-53
2023/09/10 04:39:30;;;;;;;;;;;;;;;;;;5100036;28;19944;-56
2023/09/10 04:41:55;;;;;;;;;;;;;;;;;;5094420;28;19919;-58
2023/09/10 04:44:21;;;;;;;;;;;;;;;;;;5095739;28;19939;-54
2023/09/10 04:46:46;;;;;;;;;;;;;;;;;;5096022;28;19976;-56
2023/09/10 04:49:12;;;;;;;;;;;;;;;;;;5101928;28;19994;-56
2023/09/10 04:51:38;;;;;;;;;;;;;;;;;;5098295;28;19912;-56
2023/09/10 04:54:03;;;;;;;;;;;;;;;;;;5097568;28;19955;-55
2023/09/10 04:56:28;;;;;;;;;;;;;;;;;;5097214;28;19912;-50
2023/09/10 04:58:54;;;;;;;;;;;;;;;;;;5096930;28;19981;-53
2023/09/10 05:01:19;;;;;;;;;;;;;;;;;;5097253;28;19955;-53
2023/09/10 05:03:45;;;;;;;;;;;;;;;;;;5098086;28;19908;-51
2023/09/10 05:06:10;;;;;;;;;;;;;;;;;;5107699;28;19986;-54
2023/09/10 05:08:36;;;;;;;;;;;;;;;;;;5097878;28;19916;-55
2023/09/10 05:11:02;;;;;;;;;;;;;;;;;;5096922;28;19985;-57
2023/09/10 05:13:27;;;;;;;;;;;;;;;;;;5097656;28;19908;-54
2023/09/10 05:15:54;;;;;;;;;;;;;;;;;;5104159;28;19917;-53
2023/09/10 05:18:20;;;;;;;;;;;;;;;;;;5096469;28;19931;-53
2023/09/10 05:20:46;;;;;;;;;;;;;;;;;;5097605;28;19912;-52
2023/09/10 05:23:12;;;;;;;;;;;;;;;;;;5097335;28;19932;-50
2023/09/10 05:25:37;;;;;;;;;;;;;;;;;;5100327;28;19984;-52
2023/09/10 05:28:03;;;;;;;;;;;;;;;;;;5097323;28;19928;-55
2023/09/10 05:30:29;;;;;;;;;;;;;;;;;;5096304;28;19916;-54
2023/09/10 05:32:54;;;;;;;;;;;;;;;;;;5096604;28;19919;-51
2023/09/10 05:35:20;;;;;;;;;;;;;;;;;;5096771;28;20152;-54
2023/09/10 05:37:45;;;;;;;;;;;;;;;;;;5096434;28;19984;-52
2023/09/10 05:40:11;;;;;;;;;;;;;;;;;;5096480;28;19913;-53
2023/09/10 05:42:36;;;;;;;;;;;;;;;;;;5096336;28;19916;-50
2023/09/10 05:45:02;;;;;;;;;;;;;;;;;;5102634;28;19912;-53
2023/09/10 05:47:27;;;;;;;;;;;;;;;;;;5099501;28;19913;-53
2023/09/10 05:49:53;;;;;;;;;;;;;;;;;;5096095;28;19916;-52
2023/09/10 05:52:18;;;;;;;;;;;;;;;;;;5095820;28;19917;-53
2023/09/10 05:54:44;;;;;;;;;;;;;;;;;;5099217;28;19912;-52
2023/09/10 05:57:10;;;;;;;;;;;;;;;;;;5100929;28;19939;-54
2023/09/10 05:59:35;;;;;;;;;;;;;;;;;;5094749;28;19912;-50
2023/09/10 06:02:01;;;;;;;;;;;;;;;;;;5095975;28;19912;-53
2023/09/10 06:04:27;;;;;;;;;;;;;;;;;;5096761;28;19912;-57
2023/09/10 06:06:52;;;;;;;;;;;;;;;;;;5101352;28;19980;-53
2023/09/10 06:09:18;;;;;;;;;;;;;;;;;;5095915;28;19935;-57
2023/09/10 06:11:43;;;;;;;;;;;;;;;;;;5095697;28;19924;-53
2023/09/10 06:14:09;;;;;;;;;;;;;;;;;;5095977;28;19966;-54
2023/09/10 06:16:35;;;;;;;;;;;;;;;;;;5095792;28;19988;-55
2023/09/10 06:19:00;;;;;;;;;;;;;;;;;;5092575;28;19917;-54
2023/09/10 06:21:26;;;;;;;;;;;;;;;;;;5076617;28;19913;-54
2023/09/10 06:23:52;;;;;;;;;;;;;;;;;;5092525;28;19974;-50
2023/09/10 06:26:17;;;;;;;;;;;;;;;;;;5070917;28;19912;-54
2023/09/10 06:28:43;;;;;;;;;;;;;;;;;;5092212;28;19936;-54
2023/09/10 06:31:09;;;;;;;;;;;;;;;;;;5058733;28;19988;-54
2023/09/10 06:33:35;;;;;;;;;;;;;;;;;;5076586;28;19923;-55
2023/09/10 06:36:01;;;;;;;;;;;;;;;;;;5101265;28;19952;-55
2023/09/10 06:38:26;;;;;;;;;;;;;;;;;;5058849;28;19952;-55
2023/09/10 06:40:52;;;;;;;;;;;;;;;;;;5092052;28;19920;-52
2023/09/10 06:43:17;;;;;;;;;;;;;;;;;;5092018;28;19913;-54
2023/09/10 06:46:01;;;;;;;;;;;;;;;;;;5076022;28;19947;-53
2023/09/10 06:48:26;;;;;;;;;;;;;;;;;;5076209;28;19913;-51
2023/09/10 06:50:52;;;;;;;;;;;;;;;;;;5077645;28;19924;-55
2023/09/10 06:53:17;;;;;;;;;;;;;;;;;;5075622;28;19913;-53
2023/09/10 06:55:43;;;;;;;;;;;;;;;;;;5075867;28;19927;-55
2023/09/10 06:58:08;;;;;;;;;;;;;;;;;;5076108;28;19920;-54
2023/09/10 07:00:34;;;;;;;;;;;;;;;;;;5074870;28;19959;-53
2023/09/10 07:03:02;;;;;;;;;;;;;;;;;;5075951;28;19938;-54
2023/09/10 07:05:27;;;;;;;;;;;;;;;;;;5075595;28;19920;-54
2023/09/10 07:07:53;;;;;;;;;;;;;;;;;;5075767;28;19913;-54
2023/09/10 07:10:18;;;;;;;;;;;;;;;;;;5069239;28;19935;-56
2023/09/10 07:12:43;;;;;;;;;;;;;;;;;;5075681;28;19916;-53
2023/09/10 07:15:09;;;;;;;;;;;;;;;;;;5057972;28;19948;-56
2023/09/10 07:17:34;;;;;;;;;;;;;;;;;;5085806;28;19943;-56
2023/09/10 07:20:00;;;;;;;;;;;;;;;;;;5075151;28;19913;-55
2023/09/10 07:22:25;;;;;;;;;;;;;;;;;;5075366;28;19913;-55
2023/09/10 07:24:51;;;;;;;;;;;;;;;;;;5075234;28;19920;-52
2023/09/10 07:27:16;;;;;;;;;;;;;;;;;;5082529;28;19920;-54
2023/09/10 07:29:42;;;;;;;;;;;;;;;;;;5084002;28;19916;-54
2023/09/10 07:32:07;;;;;;;;;;;;;;;;;;5057840;28;19913;-58
2023/09/10 07:34:33;;;;;;;;;;;;;;;;;;5074826;28;19917;-53
2023/09/10 07:36:58;;;;;;;;;;;;;;;;;;5079898;28;19913;-53
2023/09/10 07:39:25;;;;;;;;;;;;;;;;;;5081155;28;19913;-55
2023/09/10 07:41:50;;;;;;;;;;;;;;;;;;5075253;28;19913;-54
2023/09/10 07:44:16;;;;;;;;;;;;;;;;;;5074866;28;19913;-56
2023/09/10 07:46:41;;;;;;;;;;;;;;;;;;5076843;28;19913;-54
2023/09/10 07:49:07;;;;;;;;;;;;;;;;;;5078414;28;19913;-54
2023/09/10 07:51:32;;;;;;;;;;;;;;;;;;5074832;28;20000;-52
2023/09/10 07:53:57;;;;;;;;;;;;;;;;;;5074700;28;19912;-50
2023/09/10 07:56:23;;;;;;;;;;;;;;;;;;5081993;28;19927;-55
2023/09/10 07:58:48;;;;;;;;;;;;;;;;;;5079685;28;19942;-52
2023/09/10 08:01:14;;;;;;;;;;;;;;;;;;5074697;28;19917;-55
2023/09/10 08:03:41;;;;;;;;;;;;;;;;;;5074881;28;19932;-52
2023/09/10 08:06:06;;;;;;;;;;;;;;;;;;5079281;28;19912;-56
2023/09/10 08:08:31;;;;;;;;;;;;;;;;;;5079620;28;19916;-57
2023/09/10 08:10:57;;;;;;;;;;;;;;;;;;5085735;28;19928;-57
2023/09/10 08:13:23;;;;;;;;;;;;;;;;;;5074541;28;19942;-58
2023/09/10 08:15:48;;;;;;;;;;;;;;;;;;5076394;28;19948;-57
2023/09/10 08:18:14;;;;;;;;;;;;;;;;;;5079248;28;19979;-56
2023/09/10 08:20:40;;;;;;;;;;;;;;;;;;5083886;28;19913;-56
2023/09/10 08:23:05;;;;;;;;;;;;;;;;;;5078564;28;19920;-59
2023/09/10 08:25:31;;;;;;;;;;;;;;;;;;5078841;28;19935;-58
2023/09/10 08:27:57;;;;;;;;;;;;;;;;;;5082370;28;19912;-57
2023/09/10 08:30:23;;;;;;;;;;;;;;;;;;5078421;28;19946;-55
2023/09/10 08:32:49;;;;;;;;;;;;;;;;;;5078155;28;19913;-59
2023/09/10 08:35:15;;;;;;;;;;;;;;;;;;5078313;28;19988;-58
2023/09/10 08:37:41;;;;;;;;;;;;;;;;;;5079340;28;19923;-55
2023/09/10 08:40:08;;;;;;;;;;;;;;;;;;5078518;28;19913;-54
2023/09/10 08:42:33;;;;;;;;;;;;;;;;;;5078226;28;19913;-57
2023/09/10 08:44:59;;;;;;;;;;;;;;;;;;5078112;28;19913;-56
2023/09/10 08:47:24;;;;;;;;;;;;;;;;;;5106663;28;19917;-55
2023/09/10 08:49:50;;;;;;;;;;;;;;;;;;5087971;28;19951;-53
2023/09/10 08:52:15;;;;;;;;;;;;;;;;;;5074541;28;19913;-52
2023/09/10 08:54:41;;;;;;;;;;;;;;;;;;5060787;28;19913;-51
2023/09/10 08:57:06;;;;;;;;;;;;;;;;;;5087634;28;19948;-56
2023/09/10 08:59:31;;;;;;;;;;;;;;;;;;5083955;28;19936;-57
2023/09/10 09:01:56;;;;;;;;;;;;;;;;;;5083680;28;19913;-56
2023/09/10 09:04:22;;;;;;;;;;;;;;;;;;5077741;28;19967;-54
2023/09/10 09:06:47;;;;;;;;;;;;;;;;;;5083328;28;19935;-53
2023/09/10 09:09:13;;;;;;;;;;;;;;;;;;5077340;28;19944;-57
2023/09/10 09:11:39;;;;;;;;;;;;;;;;;;5077544;28;19913;-53
2023/09/10 09:14:07;;;;;;;;;;;;;;;;;;5077786;28;19939;-54
2023/09/10 09:16:32;;;;;;;;;;;;;;;;;;5075695;28;19959;-54
2023/09/10 09:18:57;;;;;;;;;;;;;;;;;;5069364;28;19913;-55
2023/09/10 09:21:23;;;;;;;;;;;;;;;;;;5077227;28;19912;-56
2023/09/10 09:23:48;;;;;;;;;;;;;;;;;;5069017;28;19928;-55
2023/09/10 09:26:14;;;;;;;;;;;;;;;;;;5078112;28;19988;-52
2023/09/10 09:28:39;;;;;;;;;;;;;;;;;;5079927;28;19913;-54
2023/09/10 09:31:04;;;;;;;;;;;;;;;;;;5072470;28;19924;-57
2023/09/10 09:33:29;;;;;;;;;;;;;;;;;;5072254;28;19913;-57
2023/09/10 09:35:55;;;;;;;;;;;;;;;;;;5071334;28;19920;-53
2023/09/10 09:38:20;;;;;;;;;;;;;;;;;;5074037;28;19917;-54
2023/09/10 09:40:45;;;;;;;;;;;;;;;;;;5079081;28;19973;-55
2023/09/10 09:43:11;;;;;;;;;;;;;;;;;;5068522;28;19984;-54
2023/09/10 09:45:37;;;;;;;;;;;;;;;;;;5067799;28;19917;-57
2023/09/10 09:48:03;;;;;;;;;;;;;;;;;;5085492;28;19952;-56
2023/09/10 09:50:28;;;;;;;;;;;;;;;;;;5076325;28;19947;-57
2023/09/10 09:52:54;;;;;;;;;;;;;;;;;;5075472;28;19916;-57
2023/09/10 09:55:19;;;;;;;;;;;;;;;;;;5076056;28;19921;-57
2023/09/10 09:57:44;;;;;;;;;;;;;;;;;;5091265;28;19943;-57
2023/09/10 10:00:09;;;;;;;;;;;;;;;;;;5076433;28;19913;-58
2023/09/10 10:02:35;;;;;;;;;;;;;;;;;;5075544;28;19948;-57
2023/09/10 10:05:00;;;;;;;;;;;;;;;;;;5058340;28;19936;-56
2023/09/10 10:07:28;;;;;;;;;;;;;;;;;;5076141;28;19969;-56
2023/09/10 10:09:53;;;;;;;;;;;;;;;;;;5076221;28;19917;-57
2023/09/10 10:12:18;;;;;;;;;;;;;;;;;;5075227;28;19920;-58
2023/09/10 10:14:44;;;;;;;;;;;;;;;;;;5075642;28;19939;-60
2023/09/10 10:17:09;;;;;;;;;;;;;;;;;;5073339;28;19916;-56
2023/09/10 10:19:34;;;;;;;;;;;;;;;;;;5072096;28;19939;-55
2023/09/10 10:22:00;;;;;;;;;;;;;;;;;;5068649;28;19913;-60
2023/09/10 10:24:26;;;;;;;;;;;;;;;;;;5058709;28;19960;-54
2023/09/10 10:26:51;;;;;;;;;;;;;;;;;;5063201;28;19912;-58
2023/09/10 10:29:17;;;;;;;;;;;;;;;;;;5087080;28;19951;-58
2023/09/10 10:31:43;;;;;;;;;;;;;;;;;;5076303;28;19913;-57
2023/09/10 10:34:09;;;;;;;;;;;;;;;;;;5065950;28;19992;-57
2023/09/10 10:36:34;;;;;;;;;;;;;;;;;;5065705;28;19913;-59
2023/09/10 10:38:59;;;;;;;;;;;;;;;;;;5082573;28;19985;-59
2023/09/10 10:41:25;;;;;;;;;;;;;;;;;;5054734;28;19913;-56
2023/09/10 10:43:51;;;;;;;;;;;;;;;;;;5042895;28;19937;-59
2023/09/10 10:46:16;;;;;;;;;;;;;;;;;;5070119;28;19912;-57
2023/09/10 10:48:42;;;;;;;;;;;;;;;;;;5068155;28;19913;-57
2023/09/10 10:51:10;;;;;;;;;;;;;;;;;;5072962;28;19944;-58
2023/09/10 10:53:35;;;;;;;;;;;;;;;;;;5075169;28;19909;-60
2023/09/10 10:56:03;;;;;;;;;;;;;;;;;;5071651;28;19924;-58
2023/09/10 10:58:29;;;;;;;;;;;;;;;;;;5074504;28;19912;-58
2023/09/10 11:00:57;;;;;;;;;;;;;;;;;;5075227;28;19924;-60
2023/09/10 11:03:23;;;;;;;;;;;;;;;;;;5074945;28;19935;-59
2023/09/10 11:05:48;;;;;;;;;;;;;;;;;;5073459;28;19972;-58
2023/09/10 11:08:14;;;;;;;;;;;;;;;;;;5074938;28;19912;-57
2023/09/10 11:10:40;;;;;;;;;;;;;;;;;;5075222;28;19916;-58
2023/09/10 11:13:05;;;;;;;;;;;;;;;;;;5063508;28;19928;-59
2023/09/10 11:15:31;;;;;;;;;;;;;;;;;;5083854;28;19909;-58
2023/09/10 11:17:56;;;;;;;;;;;;;;;;;;5067287;28;19924;-58
2023/09/10 11:20:21;;;;;;;;;;;;;;;;;;5073340;28;19952;-58
2023/09/10 11:22:47;;;;;;;;;;;;;;;;;;5055361;28;19984;-57
2023/09/10 11:25:14;;;;;;;;;;;;;;;;;;5066608;28;21625;-59
2023/09/10 11:27:40;;;;;;;;;;;;;;;;;;5068936;28;19921;-59
2023/09/10 11:30:05;;;;;;;;;;;;;;;;;;5070199;28;19944;-59
2023/09/10 11:32:30;;;;;;;;;;;;;;;;;;5065510;28;19943;-59
2023/09/10 11:34:55;;;;;;;;;;;;;;;;;;5065395;28;19912;-60
2023/09/10 11:37:21;;;;;;;;;;;;;;;;;;5068320;28;19951;-59
2023/09/10 11:39:46;;;;;;;;;;;;;;;;;;5044842;28;19977;-60
2023/09/10 11:42:12;;;;;;;;;;;;;;;;;;5050641;28;19940;-60
2023/09/10 11:44:37;;;;;;;;;;;;;;;;;;5069274;28;19926;-59
2023/09/10 11:47:03;;;;;;;;;;;;;;;;;;5074474;28;19912;-58
2023/09/10 11:49:28;;;;;;;;;;;;;;;;;;5072223;28;19921;-58
2023/09/10 11:51:54;;;;;;;;;;;;;;;;;;5076395;28;19920;-59
2023/09/10 11:54:20;;;;;;;;;;;;;;;;;;5072990;28;19913;-60
2023/09/10 11:56:45;;;;;;;;;;;;;;;;;;5074067;28;19913;-59
2023/09/10 11:59:10;;;;;;;;;;;;;;;;;;5075980;28;19913;-59
2023/09/10 12:01:36;;;;;;;;;;;;;;;;;;5066048;28;19924;-59
2023/09/10 12:04:02;;;;;;;;;;;;;;;;;;5069510;28;19913;-59
2023/09/10 12:06:27;;;;;;;;;;;;;;;;;;5067954;28;19939;-59
2023/09/10 12:08:52;;;;;;;;;;;;;;;;;;5057150;28;19913;-58
2023/09/10 12:11:17;;;;;;;;;;;;;;;;;;5070354;28;19917;-58
2023/09/10 12:13:43;;;;;;;;;;;;;;;;;;5075724;28;19912;-60
2023/09/10 12:16:08;;;;;;;;;;;;;;;;;;5066568;28;19981;-59
2023/09/10 12:18:34;;;;;;;;;;;;;;;;;;5077193;28;19916;-60
2023/09/10 12:21:00;;;;;;;;;;;;;;;;;;5070363;28;19976;-59
2023/09/10 12:23:25;;;;;;;;;;;;;;;;;;5068437;28;19980;-59
2023/09/10 12:25:51;;;;;;;;;;;;;;;;;;5074519;28;19913;-59
2023/09/10 12:28:16;;;;;;;;;;;;;;;;;;5057790;28;19960;-58
2023/09/10 12:30:41;;;;;;;;;;;;;;;;;;5064895;28;19943;-59
2023/09/10 12:33:07;;;;;;;;;;;;;;;;;;5074134;28;19915;-58
2023/09/10 12:35:32;;;;;;;;;;;;;;;;;;5058606;28;19941;-59
2023/09/10 12:37:57;;;;;;;;;;;;;;;;;;5065324;28;19913;-58
2023/09/10 12:40:24;;;;;;;;;;;;;;;;;;5068818;28;19939;-59
2023/09/10 12:42:50;;;;;;;;;;;;;;;;;;5072862;28;19978;-59
2023/09/10 12:45:16;;;;;;;;;;;;;;;;;;5072774;28;19948;-60
2023/09/10 12:47:41;;;;;;;;;;;;;;;;;;5073920;28;19943;-60
2023/09/10 12:50:07;;;;;;;;;;;;;;;;;;5073314;28;19966;-59
2023/09/10 12:52:32;;;;;;;;;;;;;;;;;;5091575;28;19920;-59
2023/09/10 12:54:57;;;;;;;;;;;;;;;;;;5077962;28;19972;-60
2023/09/10 12:57:22;;;;;;;;;;;;;;;;;;5072611;28;19987;-59
2023/09/10 12:59:47;;;;;;;;;;;;;;;;;;5087287;28;19913;-59
2023/09/10 13:02:13;;;;;;;;;;;;;;;;;;5080870;28;19913;-61
2023/09/10 13:04:38;;;;;;;;;;;;;;;;;;5074342;28;19948;-59
2023/09/10 13:07:04;;;;;;;;;;;;;;;;;;5075261;28;19924;-58
2023/09/10 13:09:30;;;;;;;;;;;;;;;;;;5090984;28;19931;-59
2023/09/10 13:11:56;;;;;;;;;;;;;;;;;;5090441;28;19935;-59
2023/09/10 13:14:21;;;;;;;;;;;;;;;;;;5083393;28;19972;-59
2023/09/10 13:16:47;;;;;;;;;;;;;;;;;;5077270;28;19917;-59
2023/09/10 13:19:12;;;;;;;;;;;;;;;;;;5077890;28;19913;-59
2023/09/10 13:21:37;;;;;;;;;;;;;;;;;;5077491;28;19920;-59
2023/09/10 13:24:02;;;;;;;;;;;;;;;;;;5077231;28;19909;-59
2023/09/10 13:26:28;;;;;;;;;;;;;;;;;;5077182;28;19913;-59
2023/09/10 13:28:53;;;;;;;;;;;;;;;;;;5079569;28;20011;-59
2023/09/10 13:31:18;;;;;;;;;;;;;;;;;;5077970;28;19925;-59
2023/09/10 13:33:43;;;;;;;;;;;;;;;;;;5076821;28;19924;-59
2023/09/10 13:36:10;;;;;;;;;;;;;;;;;;5077045;28;19909;-59
2023/09/10 13:38:36;;;;;;;;;;;;;;;;;;5079090;28;19912;-60
2023/09/10 13:41:01;;;;;;;;;;;;;;;;;;5058879;28;19916;-59
2023/09/10 13:43:26;;;;;;;;;;;;;;;;;;5076919;28;19951;-59
2023/09/10 13:45:52;;;;;;;;;;;;;;;;;;5076894;28;19941;-59
2023/09/10 13:48:18;;;;;;;;;;;;;;;;;;5076639;28;19913;-59
2023/09/10 13:50:43;;;;;;;;;;;;;;;;;;5076615;28;19917;-60
2023/09/10 13:53:09;;;;;;;;;;;;;;;;;;5076085;28;19923;-59
2023/09/10 13:55:34;;;;;;;;;;;;;;;;;;5076749;28;19927;-59
2023/09/10 13:57:59;;;;;;;;;;;;;;;;;;5076673;28;19916;-59
2023/09/10 14:00:24;;;;;;;;;;;;;;;;;;5075028;28;19997;-59
2023/09/10 14:02:50;;;;;;;;;;;;;;;;;;5075035;28;19913;-59
2023/09/10 14:05:16;;;;;;;;;;;;;;;;;;5059380;28;19917;-59
2023/09/10 14:07:41;;;;;;;;;;;;;;;;;;5077068;28;19935;-60
2023/09/10 14:10:07;;;;;;;;;;;;;;;;;;5076802;28;19974;-60
2023/09/10 14:12:32;;;;;;;;;;;;;;;;;;5076798;28;19920;-59
2023/09/10 14:14:58;;;;;;;;;;;;;;;;;;5076226;28;19913;-59
2023/09/10 14:17:23;;;;;;;;;;;;;;;;;;5085249;28;19916;-59
2023/09/10 14:19:49;;;;;;;;;;;;;;;;;;5106277;28;19912;-59
2023/09/10 14:22:14;;;;;;;;;;;;;;;;;;5116938;28;19955;-60
2023/09/10 14:24:40;;;;;;;;;;;;;;;;;;5116320;28;19923;-59
2023/09/10 14:27:05;;;;;;;;;;;;;;;;;;5116859;28;20010;-60
2023/09/10 14:29:31;;;;;;;;;;;;;;;;;;5109151;28;19912;-59
2023/09/10 14:31:58;;;;;;;;;;;;;;;;;;5096739;28;19916;-59
2023/09/10 14:34:24;;;;;;;;;;;;;;;;;;5096617;28;19912;-60
2023/09/10 14:36:49;;;;;;;;;;;;;;;;;;5096522;28;19947;-59
2023/09/10 14:39:16;;;;;;;;;;;;;;;;;;5096280;28;19946;-59
2023/09/10 14:41:42;;;;;;;;;;;;;;;;;;5095782;28;19912;-59
2023/09/10 14:44:07;;;;;;;;;;;;;;;;;;5096001;28;19913;-59
2023/09/10 14:46:34;;;;;;;;;;;;;;;;;;5096058;28;19939;-60
2023/09/10 14:48:59;;;;;;;;;;;;;;;;;;5095436;28;19913;-59
2023/09/10 14:51:24;;;;;;;;;;;;;;;;;;5097949;28;20003;-60
2023/09/10 14:53:50;;;;;;;;;;;;;;;;;;5097361;28;19912;-59
2023/09/10 14:56:16;;;;;;;;;;;;;;;;;;5095500;28;19913;-60
2023/09/10 14:58:41;;;;;;;;;;;;;;;;;;5095031;28;19913;-59
2023/09/10 15:01:06;;;;;;;;;;;;;;;;;;5095379;28;19912;-59
2023/09/10 15:03:31;;;;;;;;;;;;;;;;;;5095525;28;19943;-59
2023/09/10 15:05:56;;;;;;;;;;;;;;;;;;5095306;28;19995;-60
2023/09/10 15:08:23;;;;;;;;;;;;;;;;;;5092561;28;19983;-61
2023/09/10 15:10:48;;;;;;;;;;;;;;;;;;5097932;28;19923;-60
2023/09/10 15:13:13;;;;;;;;;;;;;;;;;;5095065;28;19916;-60
2023/09/10 15:15:39;;;;;;;;;;;;;;;;;;5095290;28;19948;-60
2023/09/10 15:18:04;;;;;;;;;;;;;;;;;;5080737;28;19944;-59
2023/09/10 15:20:30;;;;;;;;;;;;;;;;;;5076389;28;19967;-60
2023/09/10 15:22:55;;;;;;;;;;;;;;;;;;5075096;28;19919;-62
2023/09/10 15:25:21;;;;;;;;;;;;;;;;;;5070451;28;19916;-60
2023/09/10 15:27:46;;;;;;;;;;;;;;;;;;5055184;28;19948;-59
2023/09/10 15:30:11;;;;;;;;;;;;;;;;;;5075543;28;19917;-59
2023/09/10 15:32:36;;;;;;;;;;;;;;;;;;5074947;28;19921;-59
2023/09/10 15:35:02;;;;;;;;;;;;;;;;;;5076112;28;19912;-59
2023/09/10 15:37:27;;;;;;;;;;;;;;;;;;5074719;28;19921;-60
2023/09/10 15:39:53;;;;;;;;;;;;;;;;;;5076019;28;19913;-59
2023/09/10 15:42:18;;;;;;;;;;;;;;;;;;5095510;28;19948;-60
2023/09/10 15:44:44;;;;;;;;;;;;;;;;;;5095234;28;19923;-59
2023/09/10 15:47:10;;;;;;;;;;;;;;;;;;5046763;28;19964;-59
2023/09/10 15:49:36;;;;;;;;;;;;;;;;;;5054018;28;19952;-60
2023/09/10 15:52:02;;;;;;;;;;;;;;;;;;5054145;28;19914;-60
2023/09/10 15:54:27;;;;;;;;;;;;;;;;;;5072789;28;19913;-59
2023/09/10 15:56:53;;;;;;;;;;;;;;;;;;5057676;28;19975;-59
2023/09/10 15:59:18;;;;;;;;;;;;;;;;;;5074516;28;19936;-59
2023/09/10 16:01:44;;;;;;;;;;;;;;;;;;5087343;28;19966;-59
2023/09/10 16:04:09;;;;;;;;;;;;;;;;;;5093339;28;19952;-59
2023/09/10 16:06:36;;;;;;;;;;;;;;;;;;5093998;28;19912;-59
2023/09/10 16:09:03;;;;;;;;;;;;;;;;;;5075510;28;19920;-59
2023/09/10 16:11:28;;;;;;;;;;;;;;;;;;5064603;28;19917;-59
2023/09/10 16:13:53;;;;;;;;;;;;;;;;;;5066681;28;19913;-59
2023/09/10 16:16:19;;;;;;;;;;;;;;;;;;5074196;28;19913;-59
2023/09/10 16:18:44;;;;;;;;;;;;;;;;;;5092910;28;19920;-57
2023/09/10 16:21:10;;;;;;;;;;;;;;;;;;5089783;28;19928;-59
2023/09/10 16:23:36;;;;;;;;;;;;;;;;;;5093243;28;19927;-59
2023/09/10 16:26:01;;;;;;;;;;;;;;;;;;5095071;28;19927;-59
2023/09/10 16:28:26;;;;;;;;;;;;;;;;;;5093998;28;19972;-57
2023/09/10 16:30:51;;;;;;;;;;;;;;;;;;5094998;28;19923;-57
2023/09/10 16:33:17;;;;;;;;;;;;;;;;;;5094531;28;19939;-59